createdAt,value
2022-08-17T00:00:33.294Z,3.47
2022-08-17T00:03:11.566Z,3.35
2022-08-17T00:05:45.494Z,3.72
2022-08-17T00:08:14.855Z,3.60
2022-08-17T00:10:43.928Z,3.53
2022-08-17T00:13:17.189Z,3.40
2022-08-17T00:15:45.716Z,3.20
2022-08-17T00:19:01.768Z,3.30
2022-08-17T00:21:10.359Z,3.53
2022-08-17T00:23:39.464Z,3.53
2022-08-17T00:26:15.966Z,3.80
2022-08-17T00:29:04.304Z,3.50
2022-08-17T00:31:32.161Z,3.58
2022-08-17T00:34:00.358Z,3.25
2022-08-17T00:36:29.544Z,3.33
2022-08-17T00:38:57.303Z,3.33
2022-08-17T00:41:27.292Z,3.60
2022-08-17T00:43:58.961Z,3.50
2022-08-17T00:46:30.037Z,3.05
2022-08-17T00:48:58.476Z,3.25
2022-08-17T00:51:32.855Z,3.80
2022-08-17T00:54:05.584Z,3.35
2022-08-17T00:56:37.223Z,3.28
2022-08-17T00:59:08.145Z,3.17
2022-08-17T01:01:36.185Z,3.78
2022-08-17T01:04:05.299Z,3.70
2022-08-17T01:06:34.759Z,3.60
2022-08-17T01:09:04.876Z,3.20
2022-08-17T01:11:36.106Z,3.55
2022-08-17T01:14:04.589Z,3.88
2022-08-17T01:16:33.252Z,3.95
2022-08-17T01:19:03.068Z,3.53
2022-08-17T01:21:47.200Z,3.20
2022-08-17T01:24:16.496Z,3.90
2022-08-17T01:26:45.468Z,3.63
2022-08-17T01:29:14.037Z,3.45
2022-08-17T01:31:45.831Z,3.50
2022-08-17T01:34:16.745Z,3.58
2022-08-17T01:36:47.488Z,3.70
2022-08-17T01:39:22.218Z,3.25
2022-08-17T01:41:54.392Z,3.25
2022-08-17T01:44:23.916Z,3.80
2022-08-17T01:46:51.852Z,3.90
2022-08-17T01:49:20.168Z,3.55
2022-08-17T01:51:47.962Z,3.03
2022-08-17T01:54:19.652Z,3.58
2022-08-17T01:56:50.256Z,3.63
2022-08-17T01:59:20.209Z,3.85
2022-08-17T02:01:58.820Z,3.65
2022-08-17T02:04:26.819Z,3.28
2022-08-17T02:06:54.755Z,3.50
2022-08-17T02:09:26.074Z,3.33
2022-08-17T02:11:59.208Z,3.35
2022-08-17T02:14:27.808Z,3.40
2022-08-17T02:16:56.085Z,3.67
2022-08-17T02:19:23.980Z,3.80
2022-08-17T02:21:55.190Z,3.50
2022-08-17T02:24:59.674Z,3.85
2022-08-17T02:27:16.244Z,3.95
2022-08-17T02:29:44.029Z,3.58
2022-08-17T02:32:25.289Z,3.70
2022-08-17T02:34:55.802Z,4.00
2022-08-17T02:37:23.579Z,3.70
2022-08-17T02:39:52.800Z,3.35
2022-08-17T02:42:27.649Z,4.00
2022-08-17T02:44:55.510Z,3.75
2022-08-17T02:47:23.499Z,3.45
2022-08-17T02:49:55.391Z,3.97
2022-08-17T02:52:53.640Z,3.80
2022-08-17T02:55:20.514Z,3.55
2022-08-17T02:57:49.342Z,3.78
2022-08-17T03:00:22.115Z,3.88
2022-08-17T03:02:51.178Z,3.55
2022-08-17T03:05:22.443Z,3.40
2022-08-17T03:07:50.972Z,3.88
2022-08-17T03:10:21.780Z,3.58
2022-08-17T03:12:50.271Z,3.63
2022-08-17T03:15:23.443Z,3.50
2022-08-17T03:17:52.308Z,3.53
2022-08-17T03:20:21.476Z,4.00
2022-08-17T03:22:53.303Z,3.72
2022-08-17T03:25:25.973Z,3.80
2022-08-17T03:27:54.775Z,4.00
2022-08-17T03:30:23.984Z,4.07
2022-08-17T03:32:54.740Z,3.85
2022-08-17T03:35:25.628Z,3.60
2022-08-17T03:38:00.818Z,3.92
2022-08-17T03:40:34.779Z,3.50
2022-08-17T03:43:21.504Z,3.83
2022-08-17T03:46:27.361Z,3.65
2022-08-17T03:49:27.248Z,3.47
2022-08-17T03:52:13.263Z,3.60
2022-08-17T03:54:59.106Z,3.55
2022-08-17T03:57:29.071Z,3.72
2022-08-17T03:59:58.382Z,3.83
2022-08-17T04:02:29.588Z,3.70
2022-08-17T04:04:58.477Z,3.70
2022-08-17T04:07:28.527Z,3.72
2022-08-17T04:09:57.790Z,3.83
2022-08-17T04:12:26.367Z,3.85
2022-08-17T04:14:55.556Z,3.92
2022-08-17T04:17:26.031Z,4.05
2022-08-17T04:19:55.278Z,3.55
2022-08-17T04:22:30.996Z,3.80
2022-08-17T04:25:09.366Z,3.72
2022-08-17T04:27:37.476Z,3.30
2022-08-17T04:30:08.188Z,3.75
2022-08-17T04:33:00.617Z,3.90
2022-08-17T04:35:38.420Z,3.65
2022-08-17T04:38:07.202Z,3.58
2022-08-17T04:40:53.043Z,3.95
2022-08-17T04:43:23.259Z,3.22
2022-08-17T04:45:56.583Z,3.50
2022-08-17T04:48:35.500Z,3.50
2022-08-17T04:51:10.566Z,3.70
2022-08-17T04:53:40.002Z,3.63
2022-08-17T04:56:11.752Z,3.85
2022-08-17T04:58:45.889Z,3.95
2022-08-17T05:01:16.297Z,3.90
2022-08-17T05:03:51.421Z,3.42
2022-08-17T05:06:19.196Z,3.70
2022-08-17T05:08:46.969Z,3.50
2022-08-17T05:11:15.713Z,3.72
2022-08-17T05:13:43.578Z,3.40
2022-08-17T05:16:12.018Z,3.53
2022-08-17T05:18:41.272Z,3.33
2022-08-17T05:21:09.894Z,3.72
2022-08-17T05:23:42.667Z,3.30
2022-08-17T05:26:24.743Z,3.30
2022-08-17T05:28:56.971Z,4.05
2022-08-17T05:31:26.549Z,3.70
2022-08-17T05:33:55.774Z,3.53
2022-08-17T05:36:41.763Z,3.67
2022-08-17T05:39:15.990Z,3.20
2022-08-17T05:41:44.671Z,3.08
2022-08-17T05:44:12.488Z,3.30
2022-08-17T05:46:44.669Z,3.47
2022-08-17T05:49:17.061Z,3.40
2022-08-17T05:52:06.263Z,3.50
2022-08-17T05:54:45.231Z,3.03
2022-08-17T05:57:47.533Z,3.47
2022-08-17T06:00:30.112Z,3.22
2022-08-17T06:03:37.762Z,3.30
2022-08-17T06:06:25.094Z,3.08
2022-08-17T06:09:14.769Z,3.55
2022-08-17T06:11:48.145Z,3.08
2022-08-17T06:14:39.776Z,3.50
2022-08-17T06:17:12.323Z,2.90
2022-08-17T06:19:43.535Z,3.35
2022-08-17T06:22:16.395Z,3.60
2022-08-17T06:24:49.983Z,2.90
2022-08-17T06:27:24.432Z,3.13
2022-08-17T06:29:56.964Z,3.20
2022-08-17T06:32:26.048Z,3.08
2022-08-17T06:34:55.164Z,3.42
2022-08-17T06:37:49.588Z,3.22
2022-08-17T06:40:33.681Z,3.13
2022-08-17T06:43:16.550Z,3.50
2022-08-17T06:45:49.409Z,3.33
2022-08-17T06:48:25.374Z,3.00
2022-08-17T06:50:58.536Z,3.03
2022-08-17T06:53:32.071Z,3.70
2022-08-17T06:56:06.114Z,3.50
2022-08-17T06:58:35.663Z,3.50
2022-08-17T07:01:09.246Z,3.80
2022-08-17T07:03:42.471Z,3.42
2022-08-17T07:06:16.711Z,3.60
2022-08-17T07:08:58.907Z,3.30
2022-08-17T07:11:32.980Z,3.33
2022-08-17T07:14:17.330Z,2.67
2022-08-17T07:16:48.110Z,2.58
2022-08-17T07:19:17.705Z,2.90
2022-08-17T07:21:54.924Z,2.83
2022-08-17T07:24:41.475Z,2.95
2022-08-17T07:27:15.254Z,3.05
2022-08-17T07:29:49.011Z,2.90
2022-08-17T07:32:20.097Z,2.83
2022-08-17T07:35:11.280Z,2.50
2022-08-17T07:37:41.071Z,2.95
2022-08-17T07:40:26.364Z,2.60
2022-08-17T07:43:21.959Z,2.75
2022-08-17T07:46:19.236Z,2.42
2022-08-17T07:48:50.540Z,2.30
2022-08-17T07:51:25.967Z,2.25
2022-08-17T07:54:04.809Z,2.72
2022-08-17T07:56:45.855Z,2.40
2022-08-17T07:59:18.010Z,2.42
2022-08-17T08:02:05.420Z,2.38
2022-08-17T08:04:59.212Z,2.80
2022-08-17T08:07:29.376Z,2.70
2022-08-17T08:10:10.616Z,2.25
2022-08-17T08:12:42.479Z,2.17
2022-08-17T08:15:18.487Z,2.88
2022-08-17T08:17:51.271Z,2.45
2022-08-17T08:20:51.146Z,2.65
2022-08-17T08:23:18.632Z,2.58
2022-08-17T08:25:57.306Z,2.80
2022-08-17T08:28:31.438Z,2.65
2022-08-17T08:31:09.532Z,2.60
2022-08-17T08:33:51.766Z,2.70
2022-08-17T08:37:12.982Z,3.00
2022-08-17T08:39:38.243Z,2.70
2022-08-17T08:42:16.770Z,2.72
2022-08-17T08:45:00.999Z,2.67
2022-08-17T08:47:53.130Z,3.10
2022-08-17T08:50:37.086Z,3.38
2022-08-17T08:53:28.574Z,3.28
2022-08-17T08:56:04.053Z,4.10
2022-08-17T08:58:42.079Z,2.95
2022-08-17T09:01:19.471Z,3.13
2022-08-17T09:04:25.587Z,3.45
2022-08-17T09:07:10.153Z,3.08
2022-08-17T09:09:50.520Z,3.47
2022-08-17T09:12:26.279Z,3.47
2022-08-17T09:15:01.460Z,3.35
2022-08-17T09:17:38.260Z,3.28
2022-08-17T09:20:27.670Z,3.13
2022-08-17T09:23:03.867Z,3.28
2022-08-17T09:25:37.159Z,3.40
2022-08-17T09:28:08.479Z,3.55
2022-08-17T09:30:46.930Z,3.10
2022-08-17T09:33:22.696Z,3.55
2022-08-17T09:35:55.055Z,3.70
2022-08-17T09:38:32.482Z,4.00
2022-08-17T09:41:10.238Z,3.70
2022-08-17T09:43:45.276Z,3.15
2022-08-17T09:46:18.637Z,3.35
2022-08-17T09:48:55.383Z,3.00
2022-08-17T09:51:30.263Z,3.10
2022-08-17T09:54:14.768Z,3.20
2022-08-17T09:57:18.134Z,3.30
2022-08-17T09:59:57.922Z,3.45
2022-08-17T10:02:43.615Z,3.97
2022-08-17T10:05:18.593Z,4.63
2022-08-17T10:07:55.932Z,4.88
2022-08-17T10:10:29.622Z,5.35
2022-08-17T10:13:10.791Z,4.78
2022-08-17T10:15:49.477Z,4.72
2022-08-17T10:18:34.192Z,4.95
2022-08-17T10:21:25.870Z,4.88
2022-08-17T10:24:18.613Z,5.68
2022-08-17T10:26:56.772Z,5.10
2022-08-17T10:29:46.241Z,4.88
2022-08-17T10:32:28.552Z,5.38
2022-08-17T10:35:19.056Z,5.05
2022-08-17T10:38:01.209Z,5.25
2022-08-17T10:40:37.801Z,5.22
2022-08-17T10:43:22.759Z,5.30
2022-08-17T10:46:30.531Z,5.22
2022-08-17T10:49:48.492Z,5.88
2022-08-17T11:07:57.191Z,5.70
2022-08-17T11:11:13.673Z,5.60
2022-08-17T11:45:51.785Z,6.28
2022-08-17T11:50:14.652Z,6.45
2022-08-17T11:54:53.605Z,6.53
2022-08-17T11:59:20.723Z,6.50
2022-08-17T13:05:03.981Z,6.88
2022-08-17T13:08:59.637Z,6.88
2022-08-17T13:25:40.548Z,6.75
2022-08-17T14:01:28.233Z,7.43
2022-08-17T14:04:11.781Z,7.15
2022-08-17T14:10:20.066Z,7.05
2022-08-17T14:13:29.130Z,7.65
2022-08-17T14:16:39.566Z,7.78
2022-08-17T14:19:16.382Z,7.68
2022-08-17T14:21:48.786Z,6.88
2022-08-17T14:24:38.955Z,7.38
2022-08-17T14:27:17.701Z,6.97
2022-08-17T14:29:54.317Z,7.43
2022-08-17T14:32:29.867Z,6.88
2022-08-17T14:35:00.754Z,7.10
2022-08-17T14:37:31.396Z,6.85
2022-08-17T14:40:02.927Z,7.05
2022-08-17T14:42:32.755Z,6.43
2022-08-17T14:45:04.450Z,7.15
2022-08-17T14:47:39.557Z,8.55
2022-08-17T14:50:13.504Z,7.50
2022-08-17T14:52:48.505Z,7.05
2022-08-17T14:55:21.593Z,6.85
2022-08-17T14:57:52.236Z,6.93
2022-08-17T15:00:24.029Z,7.38
2022-08-17T15:02:56.722Z,6.57
2022-08-17T15:05:31.906Z,7.05
2022-08-17T15:08:02.151Z,7.18
2022-08-17T15:10:32.412Z,7.50
2022-08-17T15:13:01.503Z,7.38
2022-08-17T15:15:30.098Z,7.13
2022-08-17T15:17:59.947Z,7.15
2022-08-17T15:20:31.281Z,6.32
2022-08-17T15:22:59.850Z,7.28
2022-08-17T15:25:30.269Z,6.70
2022-08-17T15:27:59.037Z,6.78
2022-08-17T15:30:28.482Z,7.00
2022-08-17T15:32:58.803Z,6.93
2022-08-17T15:35:35.613Z,6.80
2022-08-17T15:38:11.556Z,7.65
2022-08-17T15:40:42.346Z,6.70
2022-08-17T15:43:13.915Z,7.22
2022-08-17T15:45:42.195Z,6.80
2022-08-17T15:48:10.640Z,6.43
2022-08-17T15:50:39.810Z,6.60
2022-08-17T15:53:07.736Z,7.35
2022-08-17T15:55:36.627Z,6.28
2022-08-17T15:58:04.735Z,6.68
2022-08-17T16:00:44.115Z,6.50
2022-08-17T16:03:58.211Z,6.22
2022-08-17T16:06:09.831Z,5.95
2022-08-17T16:08:41.685Z,5.85
2022-08-17T16:11:10.912Z,6.38
2022-08-17T16:13:39.513Z,6.07
2022-08-17T16:16:08.310Z,6.53
2022-08-17T16:18:36.499Z,5.32
2022-08-17T16:21:21.835Z,6.38
2022-08-17T16:23:53.378Z,5.05
2022-08-17T16:26:22.873Z,5.55
2022-08-17T16:28:51.298Z,5.78
2022-08-17T16:31:19.152Z,4.85
2022-08-17T16:34:16.306Z,5.22
2022-08-17T16:36:37.365Z,4.90
2022-08-17T16:39:06.686Z,5.35
2022-08-17T16:41:46.618Z,5.25
2022-08-17T16:44:16.805Z,5.35
2022-08-17T16:46:45.998Z,4.97
2022-08-17T16:49:35.969Z,5.22
2022-08-17T16:52:05.761Z,5.10
2022-08-17T16:54:35.849Z,4.53
2022-08-17T16:57:04.999Z,4.80
2022-08-17T16:59:40.749Z,4.90
2022-08-17T17:02:14.220Z,5.05
2022-08-17T17:04:47.386Z,4.43
2022-08-17T17:07:44.864Z,4.60
2022-08-17T17:10:18.110Z,4.90
2022-08-17T17:13:02.090Z,4.75
2022-08-17T17:15:42.365Z,4.22
2022-08-17T17:18:15.167Z,5.18
2022-08-17T17:20:48.793Z,4.57
2022-08-17T17:23:33.146Z,4.43
2022-08-17T17:26:12.533Z,4.07
2022-08-17T17:28:53.078Z,4.28
2022-08-17T17:31:24.100Z,4.15
2022-08-17T17:33:55.859Z,4.00
2022-08-17T17:36:27.269Z,4.22
2022-08-17T17:39:01.262Z,4.07
2022-08-17T17:41:34.932Z,4.50
2022-08-17T17:44:09.125Z,4.28
2022-08-17T17:46:40.805Z,4.07
2022-08-17T17:49:10.525Z,4.35
2022-08-17T17:52:02.832Z,4.45
2022-08-17T17:54:49.882Z,4.75
2022-08-17T17:57:27.621Z,4.68
2022-08-17T18:00:03.524Z,4.65
2022-08-17T18:02:52.594Z,5.07
2022-08-17T18:05:35.731Z,5.45
2022-08-17T18:08:15.757Z,4.90
2022-08-17T18:10:50.842Z,4.60
2022-08-17T18:13:35.341Z,4.93
2022-08-17T18:16:07.883Z,4.60
2022-08-17T18:18:40.580Z,4.35
2022-08-17T18:21:16.742Z,4.55
2022-08-17T18:23:51.784Z,4.72
2022-08-17T18:26:38.015Z,4.93
2022-08-17T18:29:22.278Z,5.90
2022-08-17T18:32:10.302Z,5.40
2022-08-17T18:34:46.987Z,5.22
2022-08-17T18:37:32.835Z,5.35
2022-08-17T18:40:04.696Z,5.00
2022-08-17T18:42:32.655Z,5.32
2022-08-17T18:45:01.946Z,5.50
2022-08-17T18:47:30.571Z,5.75
2022-08-17T18:50:02.253Z,5.20
2022-08-17T18:52:32.373Z,5.35
2022-08-17T18:55:09.663Z,5.20
2022-08-17T18:57:40.820Z,5.50
2022-08-17T19:00:18.514Z,5.85
2022-08-17T19:02:53.402Z,6.10
2022-08-17T19:05:34.201Z,5.72
2022-08-17T19:08:22.411Z,6.38
2022-08-17T19:10:52.962Z,6.43
2022-08-17T19:13:25.568Z,6.10
2022-08-17T19:16:07.793Z,6.15
2022-08-17T19:18:47.295Z,6.65
2022-08-17T19:21:20.585Z,6.15
2022-08-17T19:23:54.574Z,6.10
2022-08-17T19:26:53.884Z,6.32
2022-08-17T19:29:19.524Z,6.18
2022-08-17T19:31:52.764Z,6.18
2022-08-17T19:34:32.338Z,6.13
2022-08-17T19:37:08.850Z,6.63
2022-08-17T19:39:44.021Z,7.03
2022-08-17T19:42:16.149Z,6.63
2022-08-17T19:44:55.192Z,6.72
2022-08-17T19:47:54.238Z,6.80
2022-08-17T19:50:31.058Z,7.03
2022-08-17T19:53:07.201Z,7.03
2022-08-17T19:55:47.552Z,6.82
2022-08-17T19:58:42.925Z,7.00
2022-08-17T20:01:18.583Z,6.90
2022-08-17T20:03:54.471Z,7.57
2022-08-17T20:06:24.004Z,7.15
2022-08-17T20:08:59.415Z,7.93
2022-08-17T20:11:33.207Z,7.93
2022-08-17T20:14:05.588Z,7.20
2022-08-17T20:16:34.371Z,7.10
2022-08-17T20:19:08.770Z,7.32
2022-08-17T20:21:42.304Z,8.23
2022-08-17T20:24:20.907Z,8.13
2022-08-17T20:26:58.552Z,7.88
2022-08-17T20:29:40.287Z,8.45
2022-08-17T20:32:25.205Z,8.65
2022-08-17T20:35:08.935Z,7.88
2022-08-17T20:37:43.004Z,7.65
2022-08-17T20:40:25.825Z,8.02
2022-08-17T20:42:53.751Z,8.00
2022-08-17T20:45:57.682Z,8.60
2022-08-17T20:48:38.723Z,8.05
2022-08-17T20:51:22.303Z,8.05
2022-08-17T20:54:26.372Z,8.00
2022-08-17T20:56:57.680Z,8.30
2022-08-17T20:59:55.105Z,8.32
2022-08-17T21:02:26.237Z,8.27
2022-08-17T21:05:07.302Z,8.20
2022-08-17T21:07:58.852Z,7.88
2022-08-17T21:10:36.451Z,7.95
2022-08-17T21:13:46.708Z,8.75
2022-08-17T21:16:36.024Z,8.73
2022-08-17T21:19:19.477Z,9.07
2022-08-17T21:22:02.781Z,8.90
2022-08-17T21:24:46.562Z,9.00
2022-08-17T21:27:28.360Z,8.88
2022-08-17T21:30:22.178Z,8.60
2022-08-17T21:33:25.408Z,8.60
2022-08-17T21:36:16.375Z,9.45
2022-08-17T21:39:02.596Z,9.20
2022-08-17T21:41:36.480Z,8.50
2022-08-17T21:44:13.087Z,9.73
2022-08-17T21:46:46.529Z,9.18
2022-08-17T21:49:17.760Z,9.30
2022-08-17T21:51:51.338Z,8.82
2022-08-17T21:54:31.351Z,9.07
2022-08-17T21:57:03.070Z,9.50
2022-08-17T21:59:35.927Z,8.95
2022-08-17T22:02:06.807Z,9.52
2022-08-17T22:04:37.744Z,8.80
2022-08-17T22:07:08.287Z,9.00
2022-08-17T22:09:43.122Z,9.25
2022-08-17T22:12:17.148Z,9.00
2022-08-17T22:14:51.586Z,9.57
2022-08-17T22:17:24.679Z,10.02
2022-08-17T22:19:56.807Z,9.82
2022-08-17T22:22:32.840Z,9.70
2022-08-17T22:25:03.436Z,9.60
2022-08-17T22:27:56.419Z,9.20
2022-08-17T22:30:36.196Z,9.68
2022-08-17T22:33:36.212Z,10.48
2022-08-17T22:36:28.880Z,10.55
2022-08-17T22:38:59.931Z,8.88
2022-08-17T22:41:42.184Z,10.95
2022-08-17T22:44:24.951Z,9.90
2022-08-17T22:47:11.742Z,9.85
2022-08-17T22:49:53.167Z,9.82
2022-08-17T22:52:33.299Z,9.77
2022-08-17T22:55:23.020Z,9.30
2022-08-17T22:58:09.665Z,9.93
2022-08-17T23:00:43.211Z,9.57
2022-08-17T23:03:18.078Z,9.63
2022-08-17T23:06:03.361Z,9.75
2022-08-17T23:08:34.233Z,9.73
2022-08-17T23:11:03.877Z,10.15
2022-08-17T23:13:33.294Z,10.38
2022-08-17T23:16:02.618Z,10.77
2022-08-17T23:18:30.488Z,10.02
2022-08-17T23:20:58.300Z,11.55
2022-08-17T23:23:26.512Z,9.52
2022-08-17T23:25:54.502Z,10.25
2022-08-17T23:28:22.390Z,10.60
2022-08-17T23:30:50.338Z,11.20
2022-08-17T23:33:22.510Z,11.02
2022-08-17T23:35:50.353Z,10.13
2022-08-17T23:38:18.173Z,10.93
2022-08-17T23:40:46.468Z,10.85
2022-08-17T23:43:24.655Z,10.98
2022-08-17T23:45:56.398Z,11.10
2022-08-17T23:48:35.844Z,11.20
2022-08-17T23:51:09.672Z,12.73
2022-08-17T23:53:42.623Z,10.70
2022-08-17T23:56:11.690Z,11.38
2022-08-17T23:58:41.865Z,11.45
